Terminal Aerodrome Forecast
Issued by NWS

Home | Current Version | Previous Version | Text Only | Print | Product List | Glossary On
Versions: 1 2 3 4 5 6 7 8 9 10 11 12 13 14 15 16 17 18
269
FTUS43 KDTX 270019 RRA
TAFMBS
TAF
KMBS 270019Z 2700/2724 24006KT P6SM FEW070 SCT250
     FM270300 25004KT P6SM SKC
     FM271600 27009KT P6SM SCT060
     FM272000 VRB03KT P6SM SCT045 BKN150 PROB30 2720/2722 3SM TSRA
      BKN040CB
     FM272300 05006KT P6SM BKN100=

USA.gov is the U.S. government's official web portal to all federal, state and local government web resources and services.